Terminal Aerodrome Forecast
Issued by NWS Twin Cities, MN

Home | Current Version | Previous Version | Text Only | Print | Product List | Glossary On
Versions: 1 2 3 4 5 6 7 8 9 10 11 12 13 14 15 16 17 18 19 20 21 22
000
FTUS43 KMPX 241459 AAC
TAFEAU
TAF AMD
KEAU 241459Z 2415/2512 30013KT 3/4SM -SN BR SCT007 OVC012
     FM241800 30015G22KT 2SM -SN BR OVC012
     FM242200 31016G27KT 6SM -SHSN OVC012
     FM250300 29009KT P6SM OVC015=

USA.gov is the U.S. government's official web portal to all federal, state and local government web resources and services.